sensor_id;sensor_type;location;lat;lon;timestamp;temperature;humidity
10263;DHT22;5177;50.068;8.156;2023-12-07T00:01:13;2.90;1.00
10263;DHT22;5177;50.068;8.156;2023-12-07T00:03:39;2.90;1.00
10263;DHT22;5177;50.068;8.156;2023-12-07T00:06:04;2.80;1.00
10263;DHT22;5177;50.068;8.156;2023-12-07T00:08:30;2.80;1.00
10263;DHT22;5177;50.068;8.156;2023-12-07T00:10:55;2.70;1.00
10263;DHT22;5177;50.068;8.156;2023-12-07T00:13:21;2.70;1.00
10263;DHT22;5177;50.068;8.156;2023-12-07T00:15:46;2.60;4.40
10263;DHT22;5177;50.068;8.156;2023-12-07T00:18:13;2.60;36.70
10263;DHT22;5177;50.068;8.156;2023-12-07T00:20:38;2.60;49.00
10263;DHT22;5177;50.068;8.156;2023-12-07T00:23:03;2.60;51.60
10263;DHT22;5177;50.068;8.156;2023-12-07T00:25:29;2.60;78.40
10263;DHT22;5177;50.068;8.156;2023-12-07T00:27:54;2.50;79.30
10263;DHT22;5177;50.068;8.156;2023-12-07T00:30:20;2.50;95.00
10263;DHT22;5177;50.068;8.156;2023-12-07T00:32:46;2.50;97.60
10263;DHT22;5177;50.068;8.156;2023-12-07T00:35:12;2.40;99.90
10263;DHT22;5177;50.068;8.156;2023-12-07T00:37:37;2.40;99.90
10263;DHT22;5177;50.068;8.156;2023-12-07T00:40:03;2.30;99.90
10263;DHT22;5177;50.068;8.156;2023-12-07T00:42:29;2.30;99.90
10263;DHT22;5177;50.068;8.156;2023-12-07T00:44:55;2.30;99.90
10263;DHT22;5177;50.068;8.156;2023-12-07T00:47:23;2.30;99.90
10263;DHT22;5177;50.068;8.156;2023-12-07T00:49:48;2.30;99.90
10263;DHT22;5177;50.068;8.156;2023-12-07T00:52:14;2.30;99.90
10263;DHT22;5177;50.068;8.156;2023-12-07T00:54:39;2.30;99.90
10263;DHT22;5177;50.068;8.156;2023-12-07T00:57:05;2.20;99.90
10263;DHT22;5177;50.068;8.156;2023-12-07T00:59:31;2.10;99.90
10263;DHT22;5177;50.068;8.156;2023-12-07T01:02:05;2.10;99.90
10263;DHT22;5177;50.068;8.156;2023-12-07T01:04:31;2.00;99.90
10263;DHT22;5177;50.068;8.156;2023-12-07T01:06:56;2.00;99.90
10263;DHT22;5177;50.068;8.156;2023-12-07T01:09:22;1.90;99.90
10263;DHT22;5177;50.068;8.156;2023-12-07T01:11:48;1.90;99.90
10263;DHT22;5177;50.068;8.156;2023-12-07T01:14:14;1.90;99.90
10263;DHT22;5177;50.068;8.156;2023-12-07T01:16:39;1.90;99.90
10263;DHT22;5177;50.068;8.156;2023-12-07T01:19:05;1.80;99.90
10263;DHT22;5177;50.068;8.156;2023-12-07T01:21:32;1.90;99.90
10263;DHT22;5177;50.068;8.156;2023-12-07T01:23:57;1.90;99.90
10263;DHT22;5177;50.068;8.156;2023-12-07T01:26:23;1.90;99.90
10263;DHT22;5177;50.068;8.156;2023-12-07T01:28:49;1.80;99.90
10263;DHT22;5177;50.068;8.156;2023-12-07T01:31:14;1.80;99.90
10263;DHT22;5177;50.068;8.156;2023-12-07T01:33:40;1.80;99.90
10263;DHT22;5177;50.068;8.156;2023-12-07T01:36:05;1.80;99.90
10263;DHT22;5177;50.068;8.156;2023-12-07T01:38:31;1.80;99.90
10263;DHT22;5177;50.068;8.156;2023-12-07T01:40:56;1.80;99.90
10263;DHT22;5177;50.068;8.156;2023-12-07T01:43:22;1.70;99.90
10263;DHT22;5177;50.068;8.156;2023-12-07T01:45:48;1.60;99.90
10263;DHT22;5177;50.068;8.156;2023-12-07T01:48:14;1.50;99.90
10263;DHT22;5177;50.068;8.156;2023-12-07T01:50:39;1.50;99.90
10263;DHT22;5177;50.068;8.156;2023-12-07T01:53:05;1.40;99.90
10263;DHT22;5177;50.068;8.156;2023-12-07T01:55:31;1.40;99.90
10263;DHT22;5177;50.068;8.156;2023-12-07T01:57:57;1.40;99.90
10263;DHT22;5177;50.068;8.156;2023-12-07T02:00:22;1.30;99.90
10263;DHT22;5177;50.068;8.156;2023-12-07T02:02:48;1.30;99.90
10263;DHT22;5177;50.068;8.156;2023-12-07T02:05:14;1.20;99.90
10263;DHT22;5177;50.068;8.156;2023-12-07T02:07:41;1.20;99.90
10263;DHT22;5177;50.068;8.156;2023-12-07T02:10:06;1.30;99.90
10263;DHT22;5177;50.068;8.156;2023-12-07T02:12:32;1.30;99.90
10263;DHT22;5177;50.068;8.156;2023-12-07T02:14:58;1.30;99.90
10263;DHT22;5177;50.068;8.156;2023-12-07T02:17:27;1.30;99.90
10263;DHT22;5177;50.068;8.156;2023-12-07T02:22:26;1.30;99.90
10263;DHT22;5177;50.068;8.156;2023-12-07T02:25:03;1.30;99.90
10263;DHT22;5177;50.068;8.156;2023-12-07T02:27:39;1.20;99.90
10263;DHT22;5177;50.068;8.156;2023-12-07T02:30:05;1.20;99.90
10263;DHT22;5177;50.068;8.156;2023-12-07T02:32:31;1.20;99.90
10263;DHT22;5177;50.068;8.156;2023-12-07T02:34:57;1.10;99.90
10263;DHT22;5177;50.068;8.156;2023-12-07T02:37:23;1.10;99.90
10263;DHT22;5177;50.068;8.156;2023-12-07T02:39:50;1.10;99.90
10263;DHT22;5177;50.068;8.156;2023-12-07T02:42:16;1.10;99.90
10263;DHT22;5177;50.068;8.156;2023-12-07T02:44:42;1.10;99.90
10263;DHT22;5177;50.068;8.156;2023-12-07T02:47:08;1.00;99.90
10263;DHT22;5177;50.068;8.156;2023-12-07T02:52:27;0.90;99.90
10263;DHT22;5177;50.068;8.156;2023-12-07T02:54:52;1.00;99.90
10263;DHT22;5177;50.068;8.156;2023-12-07T02:57:18;1.00;99.90
10263;DHT22;5177;50.068;8.156;2023-12-07T02:59:43;1.00;99.90
10263;DHT22;5177;50.068;8.156;2023-12-07T03:02:09;1.00;99.90
10263;DHT22;5177;50.068;8.156;2023-12-07T03:04:34;1.00;99.90
10263;DHT22;5177;50.068;8.156;2023-12-07T03:06:59;1.00;99.90
10263;DHT22;5177;50.068;8.156;2023-12-07T03:09:25;0.90;99.90
10263;DHT22;5177;50.068;8.156;2023-12-07T03:11:50;0.90;99.90
10263;DHT22;5177;50.068;8.156;2023-12-07T03:14:16;1.00;99.90
10263;DHT22;5177;50.068;8.156;2023-12-07T03:16:42;1.00;99.90
10263;DHT22;5177;50.068;8.156;2023-12-07T03:19:07;0.90;99.90
10263;DHT22;5177;50.068;8.156;2023-12-07T03:21:33;1.00;99.90
10263;DHT22;5177;50.068;8.156;2023-12-07T03:23:58;1.00;99.90
10263;DHT22;5177;50.068;8.156;2023-12-07T03:26:23;1.10;99.90
10263;DHT22;5177;50.068;8.156;2023-12-07T03:28:49;1.10;99.90
10263;DHT22;5177;50.068;8.156;2023-12-07T03:31:15;1.10;99.90
10263;DHT22;5177;50.068;8.156;2023-12-07T03:33:43;1.00;99.90
10263;DHT22;5177;50.068;8.156;2023-12-07T03:36:11;1.00;99.90
10263;DHT22;5177;50.068;8.156;2023-12-07T03:38:37;1.00;99.90
10263;DHT22;5177;50.068;8.156;2023-12-07T03:41:02;1.00;99.90
10263;DHT22;5177;50.068;8.156;2023-12-07T03:43:29;1.00;99.90
10263;DHT22;5177;50.068;8.156;2023-12-07T03:45:54;1.00;99.90
10263;DHT22;5177;50.068;8.156;2023-12-07T03:48:20;1.00;99.90
10263;DHT22;5177;50.068;8.156;2023-12-07T03:50:45;1.00;99.90
10263;DHT22;5177;50.068;8.156;2023-12-07T03:53:11;0.90;99.90
10263;DHT22;5177;50.068;8.156;2023-12-07T03:55:36;0.90;99.90
10263;DHT22;5177;50.068;8.156;2023-12-07T03:58:02;0.90;99.90
10263;DHT22;5177;50.068;8.156;2023-12-07T04:00:28;0.90;99.90
10263;DHT22;5177;50.068;8.156;2023-12-07T04:02:53;0.90;99.90
10263;DHT22;5177;50.068;8.156;2023-12-07T04:05:18;0.90;99.90
10263;DHT22;5177;50.068;8.156;2023-12-07T04:10:47;0.90;99.90
10263;DHT22;5177;50.068;8.156;2023-12-07T04:13:13;0.80;99.90
10263;DHT22;5177;50.068;8.156;2023-12-07T04:15:38;0.90;99.90
10263;DHT22;5177;50.068;8.156;2023-12-07T04:18:04;0.90;99.90
10263;DHT22;5177;50.068;8.156;2023-12-07T04:20:29;0.90;99.90
10263;DHT22;5177;50.068;8.156;2023-12-07T04:22:55;0.90;99.90
10263;DHT22;5177;50.068;8.156;2023-12-07T04:25:20;0.90;99.90
10263;DHT22;5177;50.068;8.156;2023-12-07T04:27:46;0.90;99.90
10263;DHT22;5177;50.068;8.156;2023-12-07T04:30:11;0.80;99.90
10263;DHT22;5177;50.068;8.156;2023-12-07T04:32:37;0.80;99.90
10263;DHT22;5177;50.068;8.156;2023-12-07T04:35:04;0.80;99.90
10263;DHT22;5177;50.068;8.156;2023-12-07T04:37:32;0.70;99.90
10263;DHT22;5177;50.068;8.156;2023-12-07T04:39:57;0.60;99.90
10263;DHT22;5177;50.068;8.156;2023-12-07T04:42:24;0.60;99.90
10263;DHT22;5177;50.068;8.156;2023-12-07T04:44:49;0.50;99.90
10263;DHT22;5177;50.068;8.156;2023-12-07T04:47:14;0.50;99.90
10263;DHT22;5177;50.068;8.156;2023-12-07T04:49:40;0.50;99.90
10263;DHT22;5177;50.068;8.156;2023-12-07T04:52:05;0.50;99.90
10263;DHT22;5177;50.068;8.156;2023-12-07T04:54:31;0.50;99.90
10263;DHT22;5177;50.068;8.156;2023-12-07T04:56:56;0.50;99.90
10263;DHT22;5177;50.068;8.156;2023-12-07T04:59:22;0.40;99.90
10263;DHT22;5177;50.068;8.156;2023-12-07T05:01:47;0.40;99.90
10263;DHT22;5177;50.068;8.156;2023-12-07T05:04:13;0.40;99.90
10263;DHT22;5177;50.068;8.156;2023-12-07T05:06:38;0.40;99.90
10263;DHT22;5177;50.068;8.156;2023-12-07T05:09:04;0.40;99.90
10263;DHT22;5177;50.068;8.156;2023-12-07T05:11:29;0.40;99.90
10263;DHT22;5177;50.068;8.156;2023-12-07T05:13:55;0.30;99.90
10263;DHT22;5177;50.068;8.156;2023-12-07T05:16:20;0.30;99.90
10263;DHT22;5177;50.068;8.156;2023-12-07T05:18:46;0.30;99.90
10263;DHT22;5177;50.068;8.156;2023-12-07T05:21:11;0.30;99.90
10263;DHT22;5177;50.068;8.156;2023-12-07T05:23:37;0.30;99.90
10263;DHT22;5177;50.068;8.156;2023-12-07T05:26:02;0.30;99.90
10263;DHT22;5177;50.068;8.156;2023-12-07T05:28:28;0.30;99.90
10263;DHT22;5177;50.068;8.156;2023-12-07T05:30:53;0.30;99.90
10263;DHT22;5177;50.068;8.156;2023-12-07T05:33:19;0.40;99.90
10263;DHT22;5177;50.068;8.156;2023-12-07T05:35:44;0.40;99.90
10263;DHT22;5177;50.068;8.156;2023-12-07T05:38:10;0.40;99.90
10263;DHT22;5177;50.068;8.156;2023-12-07T05:40:35;0.40;99.90
10263;DHT22;5177;50.068;8.156;2023-12-07T05:43:01;0.40;99.90
10263;DHT22;5177;50.068;8.156;2023-12-07T05:45:26;0.50;99.90
10263;DHT22;5177;50.068;8.156;2023-12-07T05:47:52;0.40;99.90
10263;DHT22;5177;50.068;8.156;2023-12-07T05:50:17;0.40;99.90
10263;DHT22;5177;50.068;8.156;2023-12-07T05:52:43;0.40;99.90
10263;DHT22;5177;50.068;8.156;2023-12-07T05:55:09;0.40;99.90
10263;DHT22;5177;50.068;8.156;2023-12-07T05:57:34;0.40;99.90
10263;DHT22;5177;50.068;8.156;2023-12-07T06:00:00;0.30;99.90
10263;DHT22;5177;50.068;8.156;2023-12-07T06:02:25;0.30;99.90
10263;DHT22;5177;50.068;8.156;2023-12-07T06:04:51;0.30;99.90
10263;DHT22;5177;50.068;8.156;2023-12-07T06:07:17;0.30;99.90
10263;DHT22;5177;50.068;8.156;2023-12-07T06:09:42;0.30;99.90
10263;DHT22;5177;50.068;8.156;2023-12-07T06:12:08;0.30;99.90
10263;DHT22;5177;50.068;8.156;2023-12-07T06:14:33;0.20;99.90
10263;DHT22;5177;50.068;8.156;2023-12-07T06:16:58;0.20;99.90
10263;DHT22;5177;50.068;8.156;2023-12-07T06:19:27;0.20;99.90
10263;DHT22;5177;50.068;8.156;2023-12-07T06:21:52;0.10;99.90
10263;DHT22;5177;50.068;8.156;2023-12-07T06:24:18;0.10;99.90
10263;DHT22;5177;50.068;8.156;2023-12-07T06:26:43;0.10;99.90
10263;DHT22;5177;50.068;8.156;2023-12-07T06:29:09;0.10;99.90
10263;DHT22;5177;50.068;8.156;2023-12-07T06:31:35;0.10;99.90
10263;DHT22;5177;50.068;8.156;2023-12-07T06:34:01;0.10;99.90
10263;DHT22;5177;50.068;8.156;2023-12-07T06:36:26;0.10;99.90
10263;DHT22;5177;50.068;8.156;2023-12-07T06:38:52;0.10;99.90
10263;DHT22;5177;50.068;8.156;2023-12-07T06:41:18;0.10;99.90
10263;DHT22;5177;50.068;8.156;2023-12-07T06:43:44;0.10;99.90
10263;DHT22;5177;50.068;8.156;2023-12-07T06:46:10;0.10;99.90
10263;DHT22;5177;50.068;8.156;2023-12-07T06:48:36;0.20;99.90
10263;DHT22;5177;50.068;8.156;2023-12-07T06:51:01;0.20;99.90
10263;DHT22;5177;50.068;8.156;2023-12-07T06:53:27;0.20;99.90
10263;DHT22;5177;50.068;8.156;2023-12-07T06:55:53;0.20;99.90
10263;DHT22;5177;50.068;8.156;2023-12-07T06:58:19;0.30;99.90
10263;DHT22;5177;50.068;8.156;2023-12-07T07:00:44;0.30;99.90
10263;DHT22;5177;50.068;8.156;2023-12-07T07:03:09;0.40;99.90
10263;DHT22;5177;50.068;8.156;2023-12-07T07:05:35;0.40;99.90
10263;DHT22;5177;50.068;8.156;2023-12-07T07:08:00;0.40;99.90
10263;DHT22;5177;50.068;8.156;2023-12-07T07:10:26;0.50;99.90
10263;DHT22;5177;50.068;8.156;2023-12-07T07:12:51;0.50;99.90
10263;DHT22;5177;50.068;8.156;2023-12-07T07:15:17;0.50;99.90
10263;DHT22;5177;50.068;8.156;2023-12-07T07:17:43;0.60;99.90
10263;DHT22;5177;50.068;8.156;2023-12-07T07:20:09;0.60;99.90
10263;DHT22;5177;50.068;8.156;2023-12-07T07:22:34;0.60;99.90
10263;DHT22;5177;50.068;8.156;2023-12-07T07:25:00;0.60;99.90
10263;DHT22;5177;50.068;8.156;2023-12-07T07:27:26;0.60;99.90
10263;DHT22;5177;50.068;8.156;2023-12-07T07:29:51;0.60;99.90
10263;DHT22;5177;50.068;8.156;2023-12-07T07:32:17;0.60;99.90
10263;DHT22;5177;50.068;8.156;2023-12-07T07:34:42;0.60;99.90
10263;DHT22;5177;50.068;8.156;2023-12-07T07:37:08;0.60;99.90
10263;DHT22;5177;50.068;8.156;2023-12-07T07:39:34;0.60;99.90
10263;DHT22;5177;50.068;8.156;2023-12-07T07:42:00;0.60;99.90
10263;DHT22;5177;50.068;8.156;2023-12-07T07:44:25;0.60;99.90
10263;DHT22;5177;50.068;8.156;2023-12-07T07:46:51;0.80;99.90
10263;DHT22;5177;50.068;8.156;2023-12-07T07:49:16;0.80;99.90
10263;DHT22;5177;50.068;8.156;2023-12-07T07:51:42;0.80;99.90
10263;DHT22;5177;50.068;8.156;2023-12-07T07:54:07;0.80;99.90
10263;DHT22;5177;50.068;8.156;2023-12-07T07:56:36;0.80;99.90
10263;DHT22;5177;50.068;8.156;2023-12-07T07:59:02;0.80;99.90
10263;DHT22;5177;50.068;8.156;2023-12-07T08:01:27;0.90;99.90
10263;DHT22;5177;50.068;8.156;2023-12-07T08:03:53;0.90;99.90
10263;DHT22;5177;50.068;8.156;2023-12-07T08:06:18;0.90;99.90
10263;DHT22;5177;50.068;8.156;2023-12-07T08:08:44;1.00;99.90
10263;DHT22;5177;50.068;8.156;2023-12-07T08:11:09;1.00;99.90
10263;DHT22;5177;50.068;8.156;2023-12-07T08:13:35;1.00;99.90
10263;DHT22;5177;50.068;8.156;2023-12-07T08:16:00;1.00;99.90
10263;DHT22;5177;50.068;8.156;2023-12-07T08:18:26;1.00;99.90
10263;DHT22;5177;50.068;8.156;2023-12-07T08:20:51;1.00;99.90
10263;DHT22;5177;50.068;8.156;2023-12-07T08:23:17;1.00;99.90
10263;DHT22;5177;50.068;8.156;2023-12-07T08:25:42;0.80;99.90
10263;DHT22;5177;50.068;8.156;2023-12-07T08:28:09;0.90;99.90
10263;DHT22;5177;50.068;8.156;2023-12-07T08:30:35;0.90;99.90
10263;DHT22;5177;50.068;8.156;2023-12-07T08:33:00;0.80;99.90
10263;DHT22;5177;50.068;8.156;2023-12-07T08:35:26;0.80;99.90
10263;DHT22;5177;50.068;8.156;2023-12-07T08:37:51;0.90;99.90
10263;DHT22;5177;50.068;8.156;2023-12-07T08:40:17;0.90;99.90
10263;DHT22;5177;50.068;8.156;2023-12-07T08:42:45;0.90;99.90
10263;DHT22;5177;50.068;8.156;2023-12-07T08:45:10;1.00;99.90
10263;DHT22;5177;50.068;8.156;2023-12-07T08:47:36;1.00;99.90
10263;DHT22;5177;50.068;8.156;2023-12-07T08:50:01;1.00;99.90
10263;DHT22;5177;50.068;8.156;2023-12-07T08:52:27;1.10;99.90
10263;DHT22;5177;50.068;8.156;2023-12-07T08:54:53;1.10;99.90
10263;DHT22;5177;50.068;8.156;2023-12-07T08:57:19;1.10;99.90
10263;DHT22;5177;50.068;8.156;2023-12-07T08:59:45;1.20;99.90
10263;DHT22;5177;50.068;8.156;2023-12-07T09:02:10;1.30;99.90
10263;DHT22;5177;50.068;8.156;2023-12-07T09:04:37;1.40;99.90
10263;DHT22;5177;50.068;8.156;2023-12-07T09:07:04;1.50;99.90
10263;DHT22;5177;50.068;8.156;2023-12-07T09:09:29;1.50;99.90
10263;DHT22;5177;50.068;8.156;2023-12-07T09:11:55;1.50;99.90
10263;DHT22;5177;50.068;8.156;2023-12-07T09:14:20;1.50;99.90
10263;DHT22;5177;50.068;8.156;2023-12-07T09:16:46;1.50;99.90
10263;DHT22;5177;50.068;8.156;2023-12-07T09:19:11;1.50;99.90
10263;DHT22;5177;50.068;8.156;2023-12-07T09:21:38;1.60;99.90
10263;DHT22;5177;50.068;8.156;2023-12-07T09:24:03;1.70;99.90
10263;DHT22;5177;50.068;8.156;2023-12-07T09:26:31;1.70;99.90
10263;DHT22;5177;50.068;8.156;2023-12-07T09:28:56;1.90;99.90
10263;DHT22;5177;50.068;8.156;2023-12-07T09:31:21;1.70;99.90
10263;DHT22;5177;50.068;8.156;2023-12-07T09:33:47;1.70;99.90
10263;DHT22;5177;50.068;8.156;2023-12-07T09:36:16;1.80;99.90
10263;DHT22;5177;50.068;8.156;2023-12-07T09:38:43;1.80;99.90
10263;DHT22;5177;50.068;8.156;2023-12-07T09:41:09;1.80;99.90
10263;DHT22;5177;50.068;8.156;2023-12-07T09:43:35;1.80;99.90
10263;DHT22;5177;50.068;8.156;2023-12-07T09:46:00;1.70;99.90
10263;DHT22;5177;50.068;8.156;2023-12-07T09:48:26;1.80;99.90
10263;DHT22;5177;50.068;8.156;2023-12-07T09:50:52;1.70;99.90
10263;DHT22;5177;50.068;8.156;2023-12-07T09:53:17;1.80;99.90
10263;DHT22;5177;50.068;8.156;2023-12-07T09:55:43;1.80;99.90
10263;DHT22;5177;50.068;8.156;2023-12-07T09:58:08;1.80;99.90
10263;DHT22;5177;50.068;8.156;2023-12-07T10:00:34;1.80;99.90
10263;DHT22;5177;50.068;8.156;2023-12-07T10:03:00;1.90;99.90
10263;DHT22;5177;50.068;8.156;2023-12-07T10:05:25;1.80;99.90
10263;DHT22;5177;50.068;8.156;2023-12-07T10:07:51;1.70;99.90
10263;DHT22;5177;50.068;8.156;2023-12-07T10:10:17;1.70;99.90
10263;DHT22;5177;50.068;8.156;2023-12-07T10:12:56;1.70;99.90
10263;DHT22;5177;50.068;8.156;2023-12-07T10:15:23;1.70;99.90
10263;DHT22;5177;50.068;8.156;2023-12-07T10:17:49;1.80;99.90
10263;DHT22;5177;50.068;8.156;2023-12-07T10:20:16;1.80;99.90
10263;DHT22;5177;50.068;8.156;2023-12-07T10:22:41;1.80;99.90
10263;DHT22;5177;50.068;8.156;2023-12-07T10:25:07;1.80;99.90
10263;DHT22;5177;50.068;8.156;2023-12-07T10:27:32;1.80;99.90
10263;DHT22;5177;50.068;8.156;2023-12-07T10:29:58;1.80;99.90
10263;DHT22;5177;50.068;8.156;2023-12-07T10:32:24;1.80;99.90
10263;DHT22;5177;50.068;8.156;2023-12-07T10:34:49;1.80;99.90
10263;DHT22;5177;50.068;8.156;2023-12-07T10:37:15;1.90;99.90
10263;DHT22;5177;50.068;8.156;2023-12-07T10:39:41;1.80;99.90
10263;DHT22;5177;50.068;8.156;2023-12-07T10:42:07;1.90;99.90
10263;DHT22;5177;50.068;8.156;2023-12-07T10:44:35;1.90;99.90
10263;DHT22;5177;50.068;8.156;2023-12-07T10:47:03;1.90;99.90
10263;DHT22;5177;50.068;8.156;2023-12-07T10:49:28;1.90;99.90
10263;DHT22;5177;50.068;8.156;2023-12-07T10:51:58;1.90;99.90
10263;DHT22;5177;50.068;8.156;2023-12-07T10:54:30;1.90;99.90
10263;DHT22;5177;50.068;8.156;2023-12-07T10:56:58;1.90;99.90
10263;DHT22;5177;50.068;8.156;2023-12-07T10:59:27;1.80;99.90
10263;DHT22;5177;50.068;8.156;2023-12-07T11:01:54;1.80;99.90
10263;DHT22;5177;50.068;8.156;2023-12-07T11:04:20;1.70;99.90
10263;DHT22;5177;50.068;8.156;2023-12-07T11:06:46;1.70;99.90
10263;DHT22;5177;50.068;8.156;2023-12-07T11:09:15;1.80;99.90
10263;DHT22;5177;50.068;8.156;2023-12-07T11:11:49;1.80;99.90
10263;DHT22;5177;50.068;8.156;2023-12-07T11:14:16;1.80;99.90
10263;DHT22;5177;50.068;8.156;2023-12-07T11:16:43;1.80;99.90
10263;DHT22;5177;50.068;8.156;2023-12-07T11:22:06;1.80;99.90
10263;DHT22;5177;50.068;8.156;2023-12-07T11:24:32;1.80;99.90
10263;DHT22;5177;50.068;8.156;2023-12-07T11:26:58;1.90;99.90
10263;DHT22;5177;50.068;8.156;2023-12-07T11:29:24;1.90;99.90
10263;DHT22;5177;50.068;8.156;2023-12-07T11:31:50;2.00;99.90
10263;DHT22;5177;50.068;8.156;2023-12-07T11:37:01;2.00;99.90
10263;DHT22;5177;50.068;8.156;2023-12-07T11:39:26;2.00;99.90
10263;DHT22;5177;50.068;8.156;2023-12-07T11:41:53;2.10;99.90
10263;DHT22;5177;50.068;8.156;2023-12-07T11:44:20;1.90;99.90
10263;DHT22;5177;50.068;8.156;2023-12-07T11:46:49;2.00;99.90
10263;DHT22;5177;50.068;8.156;2023-12-07T11:49:14;2.10;99.90
10263;DHT22;5177;50.068;8.156;2023-12-07T11:51:40;2.10;99.90
10263;DHT22;5177;50.068;8.156;2023-12-07T11:54:06;2.10;99.90
10263;DHT22;5177;50.068;8.156;2023-12-07T11:56:33;2.10;99.90
10263;DHT22;5177;50.068;8.156;2023-12-07T11:58:59;2.20;99.90
10263;DHT22;5177;50.068;8.156;2023-12-07T12:01:25;2.10;99.90
10263;DHT22;5177;50.068;8.156;2023-12-07T12:03:50;2.00;99.90
10263;DHT22;5177;50.068;8.156;2023-12-07T12:06:15;2.00;99.90
10263;DHT22;5177;50.068;8.156;2023-12-07T12:08:41;2.00;99.90
10263;DHT22;5177;50.068;8.156;2023-12-07T12:11:08;2.00;99.90
10263;DHT22;5177;50.068;8.156;2023-12-07T12:13:34;2.00;99.90
10263;DHT22;5177;50.068;8.156;2023-12-07T12:16:00;2.00;99.90
10263;DHT22;5177;50.068;8.156;2023-12-07T12:18:25;2.00;99.90
10263;DHT22;5177;50.068;8.156;2023-12-07T12:20:52;2.00;99.90
10263;DHT22;5177;50.068;8.156;2023-12-07T12:23:19;2.20;99.90
10263;DHT22;5177;50.068;8.156;2023-12-07T12:25:45;2.00;99.90
10263;DHT22;5177;50.068;8.156;2023-12-07T12:28:11;2.00;99.90
10263;DHT22;5177;50.068;8.156;2023-12-07T12:30:40;2.00;99.90
10263;DHT22;5177;50.068;8.156;2023-12-07T12:33:07;2.10;99.90
10263;DHT22;5177;50.068;8.156;2023-12-07T12:35:32;2.00;99.90
10263;DHT22;5177;50.068;8.156;2023-12-07T12:37:58;1.90;99.90
10263;DHT22;5177;50.068;8.156;2023-12-07T12:40:26;1.90;99.90
10263;DHT22;5177;50.068;8.156;2023-12-07T12:42:52;1.90;99.90
10263;DHT22;5177;50.068;8.156;2023-12-07T12:45:18;2.00;99.90
10263;DHT22;5177;50.068;8.156;2023-12-07T12:47:44;2.00;99.90
10263;DHT22;5177;50.068;8.156;2023-12-07T12:50:10;1.90;99.90
10263;DHT22;5177;50.068;8.156;2023-12-07T12:52:36;2.00;99.90
10263;DHT22;5177;50.068;8.156;2023-12-07T12:55:06;2.00;99.90
10263;DHT22;5177;50.068;8.156;2023-12-07T12:57:31;1.90;99.90
10263;DHT22;5177;50.068;8.156;2023-12-07T12:59:58;1.90;99.90
10263;DHT22;5177;50.068;8.156;2023-12-07T13:02:25;1.90;99.90
10263;DHT22;5177;50.068;8.156;2023-12-07T13:04:51;1.90;99.90
10263;DHT22;5177;50.068;8.156;2023-12-07T13:07:16;1.90;99.90
10263;DHT22;5177;50.068;8.156;2023-12-07T13:09:42;1.90;99.90
10263;DHT22;5177;50.068;8.156;2023-12-07T13:12:09;1.90;99.90
10263;DHT22;5177;50.068;8.156;2023-12-07T13:14:34;1.90;99.90
10263;DHT22;5177;50.068;8.156;2023-12-07T13:17:01;1.90;99.90
10263;DHT22;5177;50.068;8.156;2023-12-07T13:19:27;1.90;99.90
10263;DHT22;5177;50.068;8.156;2023-12-07T13:21:52;2.00;99.90
10263;DHT22;5177;50.068;8.156;2023-12-07T13:24:18;2.00;99.90
10263;DHT22;5177;50.068;8.156;2023-12-07T13:26:44;2.00;99.90
10263;DHT22;5177;50.068;8.156;2023-12-07T13:29:10;2.10;99.90
10263;DHT22;5177;50.068;8.156;2023-12-07T13:31:35;2.10;99.90
10263;DHT22;5177;50.068;8.156;2023-12-07T13:34:01;2.10;99.90
10263;DHT22;5177;50.068;8.156;2023-12-07T13:36:28;2.10;99.90
10263;DHT22;5177;50.068;8.156;2023-12-07T13:38:55;2.10;99.90
10263;DHT22;5177;50.068;8.156;2023-12-07T13:41:20;2.10;99.90
10263;DHT22;5177;50.068;8.156;2023-12-07T13:43:46;2.10;99.90
10263;DHT22;5177;50.068;8.156;2023-12-07T13:46:13;2.10;99.90
10263;DHT22;5177;50.068;8.156;2023-12-07T13:48:39;2.20;99.90
10263;DHT22;5177;50.068;8.156;2023-12-07T13:51:04;2.10;99.90
10263;DHT22;5177;50.068;8.156;2023-12-07T13:53:30;2.00;99.90
10263;DHT22;5177;50.068;8.156;2023-12-07T13:55:55;2.10;99.90
10263;DHT22;5177;50.068;8.156;2023-12-07T13:58:21;2.10;99.90
10263;DHT22;5177;50.068;8.156;2023-12-07T14:00:47;2.10;99.90
10263;DHT22;5177;50.068;8.156;2023-12-07T14:03:13;2.10;99.90
10263;DHT22;5177;50.068;8.156;2023-12-07T14:05:38;2.10;99.90
10263;DHT22;5177;50.068;8.156;2023-12-07T14:08:05;2.10;99.90
10263;DHT22;5177;50.068;8.156;2023-12-07T14:10:30;2.20;99.90
10263;DHT22;5177;50.068;8.156;2023-12-07T14:12:56;2.20;99.90
10263;DHT22;5177;50.068;8.156;2023-12-07T14:15:21;2.20;99.90
10263;DHT22;5177;50.068;8.156;2023-12-07T14:17:47;2.10;99.90
10263;DHT22;5177;50.068;8.156;2023-12-07T14:20:12;2.10;99.90
10263;DHT22;5177;50.068;8.156;2023-12-07T14:22:39;2.20;99.90
10263;DHT22;5177;50.068;8.156;2023-12-07T14:25:05;2.20;99.90
10263;DHT22;5177;50.068;8.156;2023-12-07T14:27:31;2.20;99.90
10263;DHT22;5177;50.068;8.156;2023-12-07T14:29:56;2.10;99.90
10263;DHT22;5177;50.068;8.156;2023-12-07T14:32:22;2.20;99.90
10263;DHT22;5177;50.068;8.156;2023-12-07T14:34:47;2.20;99.90
10263;DHT22;5177;50.068;8.156;2023-12-07T14:37:13;2.20;99.90
10263;DHT22;5177;50.068;8.156;2023-12-07T14:39:43;2.10;99.90
10263;DHT22;5177;50.068;8.156;2023-12-07T14:42:09;2.20;99.90
10263;DHT22;5177;50.068;8.156;2023-12-07T14:44:34;2.20;99.90
10263;DHT22;5177;50.068;8.156;2023-12-07T14:47:01;2.20;99.90
10263;DHT22;5177;50.068;8.156;2023-12-07T14:49:26;2.30;99.90
10263;DHT22;5177;50.068;8.156;2023-12-07T14:51:54;2.30;99.90
10263;DHT22;5177;50.068;8.156;2023-12-07T14:54:21;2.30;99.90
10263;DHT22;5177;50.068;8.156;2023-12-07T14:56:47;2.20;99.90
10263;DHT22;5177;50.068;8.156;2023-12-07T14:59:12;2.20;99.90
10263;DHT22;5177;50.068;8.156;2023-12-07T15:01:38;2.30;99.90
10263;DHT22;5177;50.068;8.156;2023-12-07T15:04:04;2.20;99.90
10263;DHT22;5177;50.068;8.156;2023-12-07T15:06:31;2.20;99.90
10263;DHT22;5177;50.068;8.156;2023-12-07T15:08:57;2.20;99.90
10263;DHT22;5177;50.068;8.156;2023-12-07T15:11:22;2.20;99.90
10263;DHT22;5177;50.068;8.156;2023-12-07T15:13:49;2.20;99.90
10263;DHT22;5177;50.068;8.156;2023-12-07T15:16:14;2.20;99.90
10263;DHT22;5177;50.068;8.156;2023-12-07T15:18:40;2.20;99.90
10263;DHT22;5177;50.068;8.156;2023-12-07T15:21:13;2.20;99.90
10263;DHT22;5177;50.068;8.156;2023-12-07T15:23:41;2.20;99.90
10263;DHT22;5177;50.068;8.156;2023-12-07T15:26:08;2.20;99.90
10263;DHT22;5177;50.068;8.156;2023-12-07T15:28:34;2.30;99.90
10263;DHT22;5177;50.068;8.156;2023-12-07T15:31:00;2.20;99.90
10263;DHT22;5177;50.068;8.156;2023-12-07T15:33:25;2.20;99.90
10263;DHT22;5177;50.068;8.156;2023-12-07T15:35:51;2.30;99.90
10263;DHT22;5177;50.068;8.156;2023-12-07T15:38:16;2.20;99.90
10263;DHT22;5177;50.068;8.156;2023-12-07T15:40:42;2.20;99.90
10263;DHT22;5177;50.068;8.156;2023-12-07T15:43:08;2.30;99.90
10263;DHT22;5177;50.068;8.156;2023-12-07T15:45:34;2.30;99.90
10263;DHT22;5177;50.068;8.156;2023-12-07T15:48:00;2.40;99.90
10263;DHT22;5177;50.068;8.156;2023-12-07T15:50:25;2.40;99.90
10263;DHT22;5177;50.068;8.156;2023-12-07T15:52:51;2.40;99.90
10263;DHT22;5177;50.068;8.156;2023-12-07T15:55:17;2.40;99.90
10263;DHT22;5177;50.068;8.156;2023-12-07T15:57:42;2.50;99.90
10263;DHT22;5177;50.068;8.156;2023-12-07T16:00:08;2.40;99.90
10263;DHT22;5177;50.068;8.156;2023-12-07T16:02:34;2.50;99.90
10263;DHT22;5177;50.068;8.156;2023-12-07T16:05:01;2.50;99.90
10263;DHT22;5177;50.068;8.156;2023-12-07T16:07:27;2.50;99.90